Time;durP1;ratioP1;P1;durP2;ratioP2;P2;SDS_P1;SDS_P2;PMS_P1;PMS_P2;Temp;Humidity;BMP_temperature;BMP_pressure;BME280_temperature;BME280_humidity;BME280_pressure;Samples;Min_cycle;Max_cycle;Signal;HPM_P1;HPM_P2
2023/11/01 00:01:37;;;;;;;7.70;5.57;;;;;;;17.25;72.19;94508.31;5082064;28;20483;-73
2023/11/01 00:04:04;;;;;;;8.27;6.63;;;;;;;17.25;70.25;94518.94;5117310;28;20444;-73
2023/11/01 00:06:30;;;;;;;9.37;6.63;;;;;;;17.00;69.66;94526.28;5117584;28;20912;-73
2023/11/01 00:08:57;;;;;;;11.40;5.60;;;;;;;17.14;70.02;94532.63;5098451;28;20438;-74
2023/11/01 00:11:24;;;;;;;8.07;5.77;;;;;;;17.00;69.72;94541.34;5117535;28;20446;-73
2023/11/01 00:13:53;;;;;;;9.13;6.37;;;;;;;17.03;69.64;94548.94;5117374;28;20450;-73
2023/11/01 00:16:19;;;;;;;7.73;5.90;;;;;;;17.13;69.76;94538.13;5117676;28;20448;-72
2023/11/01 00:18:46;;;;;;;11.73;6.00;;;;;;;17.21;70.31;94544.16;5117243;28;20480;-71
2023/11/01 00:21:13;;;;;;;8.77;6.30;;;;;;;17.27;69.67;94562.00;5117165;28;20513;-73
2023/11/01 00:23:40;;;;;;;6.40;5.70;;;;;;;17.37;69.86;94553.00;5117252;28;20450;-73
2023/11/01 00:26:07;;;;;;;10.60;6.87;;;;;;;17.43;68.97;94539.84;5116607;27;20491;-73
2023/11/01 00:28:34;;;;;;;9.20;6.13;;;;;;;17.46;70.66;94543.94;5116437;28;20438;-74
2023/11/01 00:31:03;;;;;;;9.20;6.00;;;;;;;17.54;69.31;94543.88;5116398;28;20453;-73
2023/11/01 00:33:29;;;;;;;9.10;6.43;;;;;;;17.57;70.04;94533.72;5116295;28;20504;-72
2023/11/01 00:35:56;;;;;;;9.23;6.20;;;;;;;17.59;69.71;94522.91;5116092;27;20439;-72
2023/11/01 00:38:23;;;;;;;10.03;5.63;;;;;;;17.63;69.74;94526.84;5080789;28;20551;-72
2023/11/01 00:40:50;;;;;;;6.63;5.60;;;;;;;17.64;70.19;94529.34;5116327;28;21062;-73
2023/11/01 00:43:17;;;;;;;9.40;5.83;;;;;;;17.58;70.92;94532.69;5116701;28;20453;-72
2023/11/01 00:45:44;;;;;;;9.13;6.10;;;;;;;17.21;72.54;94548.66;5118432;28;20442;-73
2023/11/01 00:48:12;;;;;;;11.07;6.17;;;;;;;16.95;75.03;94580.81;5117167;28;20439;-72
2023/11/01 00:50:39;;;;;;;10.67;6.27;;;;;;;16.88;78.16;94580.72;5115981;28;20450;-72
2023/11/01 00:53:05;;;;;;;11.97;4.90;;;;;;;16.58;81.64;94565.63;5116235;28;20969;-73
2023/11/01 00:55:32;;;;;;;8.07;6.00;;;;;;;16.37;83.80;94560.94;5117462;28;20904;-72
2023/11/01 00:57:59;;;;;;;6.23;5.57;;;;;;;16.47;84.15;94569.47;5117971;28;20439;-73
2023/11/01 01:00:26;;;;;;;8.60;5.50;;;;;;;16.52;85.89;94584.88;5116821;28;20930;-73
2023/11/01 01:02:53;;;;;;;12.43;6.70;;;;;;;16.49;87.96;94579.94;5116285;27;20488;-72
2023/11/01 01:05:22;;;;;;;10.00;6.00;;;;;;;16.40;88.21;94572.00;5116810;28;20443;-73
2023/11/01 01:07:49;;;;;;;11.20;6.00;;;;;;;16.29;90.44;94563.63;5116834;28;20524;-72
2023/11/01 01:10:16;;;;;;;11.00;6.73;;;;;;;16.35;91.59;94570.88;5116542;28;20444;-72
2023/11/01 01:12:43;;;;;;;21.47;7.23;;;;;;;16.33;92.55;94570.22;5117435;28;20515;-72
2023/11/01 01:15:10;;;;;;;7.33;5.60;;;;;;;15.50;96.83;94554.75;5116119;28;20447;-72
2023/11/01 01:17:37;;;;;;;17.33;7.00;;;;;;;15.21;100.00;94559.75;5117000;28;20440;-72
2023/11/01 01:20:04;;;;;;;9.17;6.97;;;;;;;15.29;99.19;94563.19;5117064;28;20531;-72
2023/11/01 01:22:32;;;;;;;11.37;6.63;;;;;;;15.40;99.39;94557.59;5080479;28;20479;-72
2023/11/01 01:24:59;;;;;;;7.53;5.80;;;;;;;15.38;98.70;94566.69;5117299;28;20443;-73
2023/11/01 01:27:26;;;;;;;6.53;5.40;;;;;;;15.36;99.26;94582.72;5097242;28;20435;-71
2023/11/01 01:29:53;;;;;;;9.20;6.93;;;;;;;15.53;99.79;94582.69;5115419;28;20491;-73
2023/11/01 01:32:19;;;;;;;8.40;5.70;;;;;;;15.35;99.73;94573.13;5115790;28;20508;-72
2023/11/01 01:34:46;;;;;;;8.27;6.83;;;;;;;15.45;100.00;94563.19;5096079;28;20454;-71
2023/11/01 01:37:13;;;;;;;10.90;6.20;;;;;;;15.42;100.00;94555.59;5080247;28;20506;-73
2023/11/01 01:39:41;;;;;;;7.83;6.07;;;;;;;15.57;100.00;94557.53;5097375;28;20434;-73
2023/11/01 01:42:10;;;;;;;9.17;6.60;;;;;;;15.55;100.00;94567.47;5116231;28;20496;-72
2023/11/01 01:44:37;;;;;;;6.40;5.80;;;;;;;15.67;100.00;94568.81;5080225;28;20528;-73
2023/11/01 01:47:04;;;;;;;12.30;6.07;;;;;;;15.70;100.00;94563.19;5115127;28;20454;-72
2023/11/01 01:49:31;;;;;;;10.43;5.93;;;;;;;15.54;100.00;94569.28;5114751;27;20457;-73
2023/11/01 01:51:59;;;;;;;7.83;6.43;;;;;;;15.60;100.00;94573.09;5115586;28;20439;-72
2023/11/01 01:54:27;;;;;;;14.50;6.80;;;;;;;15.69;100.00;94566.81;5115585;28;20445;-72
2023/11/01 01:56:55;;;;;;;7.60;5.90;;;;;;;15.75;100.00;94569.63;5114381;28;20954;-72
2023/11/01 01:59:22;;;;;;;8.53;6.07;;;;;;;15.85;100.00;94580.00;5095809;28;20493;-73
2023/11/01 02:01:50;;;;;;;13.60;6.67;;;;;;;15.82;100.00;94572.41;5114279;28;20861;-72
2023/11/01 02:04:17;;;;;;;11.07;6.60;;;;;;;15.81;100.00;94591.91;5114685;28;21019;-72
2023/11/01 02:06:45;;;;;;;13.37;6.87;;;;;;;15.69;100.00;94586.16;5115376;28;20504;-72
2023/11/01 02:09:15;;;;;;;8.53;7.23;;;;;;;15.80;100.00;94595.56;5115216;28;20857;-72
2023/11/01 02:11:42;;;;;;;12.10;6.40;;;;;;;15.90;100.00;94590.94;5079609;28;20480;-73
2023/11/01 02:14:10;;;;;;;9.30;7.00;;;;;;;15.96;100.00;94598.19;5114732;28;20472;-71
2023/11/01 02:16:37;;;;;;;10.00;6.30;;;;;;;16.04;100.00;94594.66;5114754;27;20438;-72
2023/11/01 02:19:07;;;;;;;9.43;5.37;;;;;;;16.13;100.00;94591.00;5078542;28;20477;-72
2023/11/01 02:21:34;;;;;;;9.30;5.77;;;;;;;16.07;100.00;94587.22;5114342;28;20889;-72
2023/11/01 02:24:02;;;;;;;8.17;6.30;;;;;;;16.09;100.00;94608.22;5114839;28;20467;-72
2023/11/01 02:26:30;;;;;;;14.90;7.20;;;;;;;15.98;100.00;94585.59;5114512;28;20449;-71
2023/11/01 02:28:57;;;;;;;6.67;5.90;;;;;;;15.92;100.00;94581.00;5115276;28;20450;-74
2023/11/01 02:31:23;;;;;;;17.13;6.10;;;;;;;15.90;100.00;94583.00;5114642;28;20453;-72
2023/11/01 02:33:50;;;;;;;8.50;7.00;;;;;;;15.70;100.00;94579.88;5095376;28;20443;-72
2023/11/01 02:36:17;;;;;;;7.90;7.03;;;;;;;15.80;100.00;94577.03;5079656;28;20462;-71
2023/11/01 02:38:43;;;;;;;9.90;6.40;;;;;;;15.84;100.00;94575.69;5115287;28;20453;-73
2023/11/01 02:41:11;;;;;;;13.20;7.27;;;;;;;15.84;100.00;94593.41;5114958;28;20440;-72
2023/11/01 02:43:38;;;;;;;11.23;6.23;;;;;;;15.90;100.00;94601.50;5114851;28;20231;-71
2023/11/01 02:46:05;;;;;;;12.87;6.57;;;;;;;15.93;100.00;94597.69;5115330;28;20786;-72
2023/11/01 02:48:31;;;;;;;13.30;6.53;;;;;;;15.86;100.00;94604.63;5115689;28;20443;-72
2023/11/01 02:50:58;;;;;;;11.00;6.70;;;;;;;15.75;100.00;94608.47;5114696;28;20932;-72
2023/11/01 02:53:25;;;;;;;10.00;7.03;;;;;;;15.81;100.00;94613.09;5115048;28;20447;-73
2023/11/01 02:55:52;;;;;;;8.30;6.07;;;;;;;15.85;100.00;94598.53;5114358;28;20441;-72
2023/11/01 02:58:23;;;;;;;7.00;6.00;;;;;;;15.84;100.00;94601.34;5114571;28;20440;-72
2023/11/01 03:00:50;;;;;;;10.60;6.23;;;;;;;15.88;100.00;94603.47;5114775;28;20445;-72
2023/11/01 03:03:17;;;;;;;6.80;6.10;;;;;;;15.94;100.00;94608.09;5094416;28;20478;-73
2023/11/01 03:05:44;;;;;;;11.93;6.33;;;;;;;16.04;100.00;94621.13;5114655;28;20442;-72
2023/11/01 03:08:10;;;;;;;13.60;6.90;;;;;;;16.08;100.00;94620.63;5113979;28;20435;-72
2023/11/01 03:10:37;;;;;;;8.67;6.37;;;;;;;16.13;100.00;94616.63;5113300;28;20453;-72
2023/11/01 03:13:04;;;;;;;10.50;6.53;;;;;;;16.16;100.00;94614.47;5114450;28;20445;-73
2023/11/01 03:15:32;;;;;;;7.47;6.33;;;;;;;16.20;100.00;94621.09;5115150;28;20440;-73
2023/11/01 03:17:59;;;;;;;13.37;7.27;;;;;;;16.22;100.00;94613.00;5095049;28;20449;-74
2023/11/01 03:20:26;;;;;;;7.10;6.43;;;;;;;16.23;100.00;94612.00;5094358;28;20433;-72
2023/11/01 03:22:53;;;;;;;10.97;6.30;;;;;;;16.25;100.00;94618.75;5114007;28;20485;-72
2023/11/01 03:25:20;;;;;;;8.50;6.30;;;;;;;16.25;100.00;94615.28;5114144;28;20447;-72
2023/11/01 03:27:46;;;;;;;12.70;8.20;;;;;;;16.31;100.00;94635.78;5094719;28;21256;-72
2023/11/01 03:30:13;;;;;;;11.00;6.30;;;;;;;16.32;100.00;94632.13;5113980;28;20801;-72
2023/11/01 03:32:41;;;;;;;13.23;7.40;;;;;;;16.32;100.00;94632.97;5114768;28;20440;-72
2023/11/01 03:35:09;;;;;;;11.50;7.30;;;;;;;16.34;100.00;94635.44;5115001;28;20431;-73
2023/11/01 03:37:35;;;;;;;9.70;6.50;;;;;;;16.23;100.00;94620.75;5115388;28;20439;-72
2023/11/01 03:40:02;;;;;;;10.60;7.47;;;;;;;16.13;100.00;94616.63;5114287;28;20441;-72
2023/11/01 03:42:29;;;;;;;9.00;7.90;;;;;;;16.08;100.00;94615.34;5114212;28;20489;-72
2023/11/01 03:44:56;;;;;;;9.20;7.37;;;;;;;15.90;100.00;94608.59;5077226;28;20427;-73
2023/11/01 03:47:23;;;;;;;8.80;7.97;;;;;;;15.81;100.00;94607.78;5113298;28;20460;-72
2023/11/01 03:49:51;;;;;;;13.30;8.47;;;;;;;15.80;100.00;94616.72;5112854;28;20447;-72
2023/11/01 03:52:18;;;;;;;11.30;7.13;;;;;;;15.82;100.00;94614.75;5114078;28;20449;-72
2023/11/01 03:54:45;;;;;;;10.97;7.30;;;;;;;15.87;100.00;94609.75;5113708;28;20441;-73
2023/11/01 03:57:11;;;;;;;12.37;7.50;;;;;;;15.85;100.00;94611.75;5114381;28;20443;-72
2023/11/01 03:59:38;;;;;;;12.63;8.43;;;;;;;15.71;100.00;94608.00;5113744;28;20437;-72
2023/11/01 04:02:05;;;;;;;14.87;8.80;;;;;;;15.68;100.00;94610.16;5114004;28;20447;-72
2023/11/01 04:04:32;;;;;;;18.40;7.57;;;;;;;15.74;100.00;94606.81;5114625;28;20436;-73
2023/11/01 04:07:00;;;;;;;11.40;8.40;;;;;;;15.78;100.00;94608.13;5113721;28;20482;-72
2023/11/01 04:09:27;;;;;;;15.73;8.07;;;;;;;15.76;100.00;94610.94;5114201;28;20446;-72
2023/11/01 04:11:54;;;;;;;10.20;8.93;;;;;;;15.79;100.00;94615.91;5113875;28;20459;-72
2023/11/01 04:14:21;;;;;;;16.20;8.20;;;;;;;15.82;100.00;94621.84;5113877;28;20451;-73
2023/11/01 04:16:48;;;;;;;10.97;7.87;;;;;;;15.84;100.00;94622.50;5114028;28;20441;-73
2023/11/01 04:19:15;;;;;;;9.97;8.73;;;;;;;15.83;100.00;94616.38;5113962;28;20476;-72
2023/11/01 04:21:42;;;;;;;14.10;8.47;;;;;;;15.84;100.00;94625.16;5113153;28;20480;-71
2023/11/01 04:24:10;;;;;;;12.00;7.70;;;;;;;15.85;100.00;94624.97;5113468;28;20491;-72
2023/11/01 04:26:37;;;;;;;9.70;7.23;;;;;;;15.85;100.00;94624.16;5116392;28;20926;-72
2023/11/01 04:29:05;;;;;;;10.80;7.13;;;;;;;15.74;100.00;94634.09;5118539;28;20445;-72
2023/11/01 04:31:31;;;;;;;11.13;7.07;;;;;;;15.69;100.00;94630.31;5117724;28;20485;-72
2023/11/01 04:33:58;;;;;;;10.77;7.90;;;;;;;15.66;100.00;94638.59;5118407;28;20446;-73
2023/11/01 04:36:25;;;;;;;9.27;7.70;;;;;;;15.62;100.00;94643.38;5118326;28;20493;-73
2023/11/01 04:38:53;;;;;;;12.07;8.40;;;;;;;15.55;100.00;94638.88;5098361;28;20440;-72
2023/11/01 04:41:21;;;;;;;12.13;8.73;;;;;;;15.41;100.00;94638.56;5117265;28;20505;-72
2023/11/01 04:43:48;;;;;;;9.23;8.20;;;;;;;15.44;100.00;94627.66;5117291;28;20482;-73
2023/11/01 04:46:15;;;;;;;10.80;7.80;;;;;;;15.47;100.00;94637.91;5116630;28;20446;-73
2023/11/01 04:48:43;;;;;;;12.30;9.20;;;;;;;15.47;100.00;94637.06;5080872;28;20458;-72
2023/11/01 04:51:10;;;;;;;9.43;7.93;;;;;;;15.49;100.00;94646.50;5117223;27;20481;-71
2023/11/01 04:53:37;;;;;;;11.47;8.73;;;;;;;15.52;100.00;94641.84;5117474;28;20785;-72
2023/11/01 04:56:05;;;;;;;12.93;9.43;;;;;;;15.55;100.00;94639.72;5117311;28;20447;-73
2023/11/01 04:58:35;;;;;;;10.77;8.40;;;;;;;15.58;100.00;94643.84;5081823;28;20869;-73
2023/11/01 05:01:04;;;;;;;9.73;8.33;;;;;;;15.61;100.00;94644.38;5117504;28;20475;-73
2023/11/01 05:03:31;;;;;;;15.00;8.07;;;;;;;15.62;100.00;94639.91;5117436;28;20489;-73
2023/11/01 05:05:58;;;;;;;11.03;7.93;;;;;;;15.58;100.00;94643.84;5117812;28;20471;-73
2023/11/01 05:08:25;;;;;;;12.00;9.07;;;;;;;15.60;100.00;94642.69;5116826;28;20445;-72
2023/11/01 05:10:52;;;;;;;19.80;9.07;;;;;;;15.60;100.00;94647.16;5116557;28;20439;-74
2023/11/01 05:13:19;;;;;;;8.43;7.63;;;;;;;15.65;100.00;94650.16;5116065;28;20439;-73
2023/11/01 05:15:47;;;;;;;15.87;8.27;;;;;;;15.57;100.00;94655.41;5115987;28;20447;-73
2023/11/01 05:18:14;;;;;;;11.23;7.83;;;;;;;15.56;100.00;94664.34;5116119;28;20517;-72
2023/11/01 05:20:41;;;;;;;12.47;8.03;;;;;;;15.69;100.00;94675.28;5096882;28;20435;-72
2023/11/01 05:23:08;;;;;;;13.10;8.00;;;;;;;15.91;100.00;94682.53;5116454;28;20490;-71
2023/11/01 05:25:35;;;;;;;12.40;8.50;;;;;;;16.21;100.00;94685.47;5115840;28;20442;-73
2023/11/01 05:28:02;;;;;;;10.00;7.73;;;;;;;16.79;99.26;94689.59;5115775;28;20444;-73
2023/11/01 05:30:29;;;;;;;11.43;7.73;;;;;;;17.41;94.99;94693.03;5114996;28;20470;-72
2023/11/01 05:32:57;;;;;;;10.90;6.90;;;;;;;18.17;91.81;94693.91;5116705;28;20475;-73
2023/11/01 05:35:24;;;;;;;6.67;6.07;;;;;;;18.79;86.46;94693.59;5116569;28;20441;-73
2023/11/01 05:37:52;;;;;;;11.67;6.50;;;;;;;19.32;83.77;94707.50;5097704;28;20776;-72
2023/11/01 05:40:18;;;;;;;10.67;6.27;;;;;;;19.86;80.31;94710.56;5114862;27;20812;-73
2023/11/01 05:42:47;;;;;;;7.23;5.50;;;;;;;20.42;77.98;94714.09;5099851;28;20486;-73
2023/11/01 05:45:16;;;;;;;8.97;6.37;;;;;;;20.87;75.71;94725.25;5099052;28;20463;-73
2023/11/01 05:47:49;;;;;;;12.33;6.00;;;;;;;21.25;73.49;94731.00;5102950;28;20446;-72
2023/11/01 05:50:18;;;;;;;7.20;6.13;;;;;;;21.53;71.54;94732.75;5116198;28;20910;-72
2023/11/01 05:52:45;;;;;;;10.07;4.80;;;;;;;21.77;72.27;94729.53;5115996;28;20450;-72
2023/11/01 05:55:12;;;;;;;7.17;4.77;;;;;;;21.83;70.06;94735.91;5078355;28;20450;-73
2023/11/01 05:57:38;;;;;;;6.57;4.63;;;;;;;21.93;70.13;94734.47;5115056;28;20440;-74
2023/11/01 06:00:08;;;;;;;11.23;5.67;;;;;;;22.08;70.29;94726.31;5080190;28;20443;-77
2023/11/01 06:02:36;;;;;;;7.17;5.00;;;;;;;22.20;69.98;94729.16;5115533;28;20883;-73
2023/11/01 06:05:04;;;;;;;6.20;5.47;;;;;;;22.26;69.86;94731.00;5079760;28;20439;-73
2023/11/01 06:07:32;;;;;;;5.73;4.83;;;;;;;22.36;68.07;94722.59;5115192;28;20475;-74
2023/11/01 06:09:59;;;;;;;7.47;4.50;;;;;;;22.44;67.50;94730.41;5114882;28;20440;-73
2023/11/01 06:12:26;;;;;;;9.33;5.10;;;;;;;22.46;67.12;94736.38;5114938;28;20452;-73
2023/11/01 06:14:53;;;;;;;5.47;4.97;;;;;;;22.22;68.11;94741.31;5115104;28;20457;-72
2023/11/01 06:17:20;;;;;;;7.37;4.77;;;;;;;22.11;68.21;94749.13;5094932;28;20452;-72
2023/11/01 06:19:48;;;;;;;6.10;4.80;;;;;;;22.12;68.48;94737.41;5078165;28;20472;-73
2023/11/01 06:22:16;;;;;;;6.00;4.60;;;;;;;22.07;68.62;94738.03;5099205;28;20512;-74
2023/11/01 06:24:45;;;;;;;9.30;5.73;;;;;;;22.10;70.15;94739.47;5099533;28;20234;-74
2023/11/01 06:27:13;;;;;;;4.93;4.43;;;;;;;21.79;69.11;94743.50;5120301;27;20850;-73
2023/11/01 06:29:42;;;;;;;4.90;4.40;;;;;;;21.47;70.59;94738.91;5111401;27;20428;-73
2023/11/01 06:32:09;;;;;;;8.17;4.93;;;;;;;21.22;73.68;94742.06;5112302;28;20460;-73
2023/11/01 06:34:37;;;;;;;7.70;6.17;;;;;;;20.14;77.47;94731.06;5113993;28;20446;-73
2023/11/01 06:37:03;;;;;;;10.57;8.10;;;;;;;19.49;80.16;94733.72;5112927;28;20896;-73
2023/11/01 06:39:30;;;;;;;11.57;7.30;;;;;;;19.39;80.37;94732.38;5114612;28;20419;-73
2023/11/01 06:41:58;;;;;;;10.47;7.43;;;;;;;19.11;81.88;94737.59;5112141;28;20434;-72
2023/11/01 06:44:26;;;;;;;9.07;7.00;;;;;;;19.13;81.38;94738.22;5103208;28;20480;-72
2023/11/01 06:46:57;;;;;;;8.90;6.17;;;;;;;19.10;83.90;94735.94;5110380;28;20443;-72
2023/11/01 06:49:24;;;;;;;9.50;6.33;;;;;;;19.21;82.85;94735.44;5064789;28;20450;-73
2023/11/01 06:51:51;;;;;;;11.97;6.50;;;;;;;19.25;81.96;94741.22;5104047;28;20994;-73
2023/11/01 06:54:18;;;;;;;13.03;6.80;;;;;;;19.21;81.04;94743.44;5106559;28;20448;-73
2023/11/01 06:56:45;;;;;;;8.00;7.20;;;;;;;19.12;81.49;94747.22;5113314;28;20838;-73
2023/11/01 06:59:14;;;;;;;9.07;6.30;;;;;;;18.98;82.33;94746.19;5113897;28;20472;-73
2023/11/01 07:01:41;;;;;;;10.33;6.83;;;;;;;18.83;84.05;94756.88;5115186;27;20825;-72
2023/11/01 07:04:08;;;;;;;13.63;7.27;;;;;;;18.70;83.91;94758.50;5113839;28;20480;-72
2023/11/01 07:06:34;;;;;;;8.00;6.27;;;;;;;18.53;85.13;94763.97;5112709;28;20941;-73
2023/11/01 07:09:01;;;;;;;6.90;6.20;;;;;;;18.46;86.31;94763.03;5112111;28;20443;-73
2023/11/01 07:11:28;;;;;;;9.77;8.77;;;;;;;18.36;86.15;94764.28;5083939;28;20449;-72
2023/11/01 07:13:55;;;;;;;13.00;9.33;;;;;;;18.39;86.66;94769.25;5110512;28;20469;-73
2023/11/01 07:16:24;;;;;;;17.07;10.30;;;;;;;18.45;87.62;94765.84;5094013;27;21444;-72
2023/11/01 07:18:53;;;;;;;9.87;8.80;;;;;;;18.44;88.60;94765.03;5047329;28;20842;-72
2023/11/01 07:21:20;;;;;;;10.10;7.50;;;;;;;18.46;88.10;94765.69;5052626;28;20442;-72
2023/11/01 07:23:47;;;;;;;11.27;7.03;;;;;;;18.56;88.81;94766.25;5043893;28;20483;-74
2023/11/01 07:26:14;;;;;;;10.80;7.53;;;;;;;18.58;88.15;94769.56;5041838;28;20448;-73
2023/11/01 07:28:40;;;;;;;8.73;6.90;;;;;;;18.56;87.13;94768.91;5029821;28;20440;-73
2023/11/01 07:31:07;;;;;;;11.00;7.07;;;;;;;18.65;87.32;94771.50;5029716;28;20789;-73
2023/11/01 07:33:37;;;;;;;11.27;7.90;;;;;;;18.64;87.38;94780.50;5029239;28;20943;-72
2023/11/01 07:36:05;;;;;;;11.30;9.00;;;;;;;18.65;88.82;94767.03;5032080;28;20442;-73
2023/11/01 07:38:32;;;;;;;10.53;8.50;;;;;;;18.74;88.99;94773.06;5033730;28;20443;-72
2023/11/01 07:40:58;;;;;;;10.13;9.13;;;;;;;18.34;89.25;94774.28;5035999;28;20436;-72
2023/11/01 07:43:25;;;;;;;10.10;9.00;;;;;;;18.38;90.65;94780.88;5031270;28;20616;-72
2023/11/01 07:45:52;;;;;;;18.40;10.10;;;;;;;18.41;90.71;94781.34;5031837;28;20442;-73
2023/11/01 07:48:19;;;;;;;14.20;10.90;;;;;;;18.54;92.46;94786.06;5033385;28;20451;-72
2023/11/01 07:50:47;;;;;;;12.17;8.77;;;;;;;18.33;87.12;94785.91;5033050;28;20953;-73
2023/11/01 07:53:14;;;;;;;15.00;9.60;;;;;;;18.47;88.80;94785.09;5040295;28;20443;-73
2023/11/01 07:55:41;;;;;;;13.50;9.23;;;;;;;18.69;90.31;94786.91;4997149;28;20926;-73
2023/11/01 07:58:08;;;;;;;14.47;9.93;;;;;;;18.91;87.68;94787.84;5032373;28;20445;-74
2023/11/01 08:00:35;;;;;;;16.23;10.40;;;;;;;19.05;85.95;94784.34;5031875;28;20456;-73
2023/11/01 08:03:03;;;;;;;18.10;10.20;;;;;;;19.21;84.30;94793.16;5035889;28;20844;-73
2023/11/01 08:05:29;;;;;;;18.10;10.07;;;;;;;19.36;83.33;94797.41;5047806;28;20497;-73
2023/11/01 08:07:58;;;;;;;11.17;9.60;;;;;;;19.51;83.73;94800.06;5020725;28;20441;-73
2023/11/01 08:10:24;;;;;;;16.43;9.40;;;;;;;19.59;81.90;94807.97;5055630;28;20447;-73
2023/11/01 08:12:51;;;;;;;12.37;11.07;;;;;;;19.59;81.33;94807.97;5055395;28;20451;-73
2023/11/01 08:15:18;;;;;;;13.47;9.20;;;;;;;19.51;79.60;94816.03;5036670;28;20425;-72
2023/11/01 08:17:45;;;;;;;12.77;8.60;;;;;;;19.57;82.46;94815.31;5055227;28;20502;-74
2023/11/01 08:20:12;;;;;;;12.00;8.00;;;;;;;19.60;80.74;94814.13;5020087;28;20976;-73
2023/11/01 08:22:39;;;;;;;13.13;8.03;;;;;;;19.53;80.41;94816.72;5055384;28;20682;-72
2023/11/01 08:25:08;;;;;;;16.70;8.40;;;;;;;19.55;81.15;94812.03;5055855;28;20484;-73
2023/11/01 08:27:35;;;;;;;11.80;8.80;;;;;;;19.59;80.73;94817.78;5055082;28;20441;-73
2023/11/01 08:30:03;;;;;;;14.73;9.23;;;;;;;19.79;82.00;94832.16;5055407;28;20440;-73
2023/11/01 08:32:30;;;;;;;8.67;6.80;;;;;;;19.91;79.48;94833.31;5055352;28;20482;-72
2023/11/01 08:34:57;;;;;;;10.93;7.47;;;;;;;19.89;77.06;94831.84;5055552;28;20440;-72
2023/11/01 08:37:25;;;;;;;8.13;6.37;;;;;;;19.87;76.17;94834.69;5055955;28;20487;-73
2023/11/01 08:39:52;;;;;;;11.10;7.53;;;;;;;19.86;78.14;94834.91;5055855;28;20503;-73
2023/11/01 08:42:20;;;;;;;10.13;7.57;;;;;;;19.82;77.23;94830.97;5056153;28;20437;-73
2023/11/01 08:44:47;;;;;;;12.57;6.10;;;;;;;19.87;76.96;94833.88;5055085;28;20547;-73
2023/11/01 08:47:33;;;;;;;14.67;7.67;;;;;;;19.75;76.45;94841.53;5055593;28;20502;-73
2023/11/01 08:50:00;;;;;;;9.33;7.00;;;;;;;19.78;78.88;94828.69;5055213;28;20450;-73
2023/11/01 08:52:27;;;;;;;9.57;6.57;;;;;;;19.79;79.34;94833.00;5055397;28;20522;-72
2023/11/01 08:54:53;;;;;;;17.53;8.40;;;;;;;19.45;79.46;94838.91;5055882;28;20439;-72
2023/11/01 08:57:22;;;;;;;19.83;8.83;;;;;;;19.08;82.69;94841.66;5056070;28;20468;-74
2023/11/01 08:59:50;;;;;;;13.50;10.03;;;;;;;18.81;84.07;94849.28;5055821;28;20468;-74
2023/11/01 09:02:17;;;;;;;12.27;8.80;;;;;;;18.42;84.98;94852.06;5055349;28;20450;-73
2023/11/01 09:04:45;;;;;;;19.63;10.13;;;;;;;18.18;88.48;94857.56;5054535;28;20889;-74
2023/11/01 09:07:11;;;;;;;21.03;11.97;;;;;;;17.87;89.21;94858.44;5055671;28;20431;-73
2023/11/01 09:09:39;;;;;;;21.23;11.77;;;;;;;17.78;90.94;94864.00;5056813;28;20453;-73
2023/11/01 09:12:06;;;;;;;15.90;10.53;;;;;;;17.54;92.35;94868.38;5056206;28;20460;-73
2023/11/01 09:14:36;;;;;;;17.80;9.70;;;;;;;17.44;94.49;94864.28;5020539;28;20834;-72
2023/11/01 09:17:02;;;;;;;15.67;10.50;;;;;;;17.28;93.59;94873.13;5055312;28;20441;-73
2023/11/01 09:19:29;;;;;;;16.33;8.70;;;;;;;17.28;95.10;94871.31;5054793;28;20473;-72
2023/11/01 09:21:56;;;;;;;14.37;8.93;;;;;;;17.18;94.65;94865.38;5054620;28;20469;-73
2023/11/01 09:24:23;;;;;;;16.10;8.53;;;;;;;17.20;95.17;94866.03;5054348;28;20487;-73
2023/11/01 09:26:50;;;;;;;16.90;9.30;;;;;;;17.44;95.86;94862.47;5054352;28;20814;-73
2023/11/01 09:29:17;;;;;;;15.33;8.80;;;;;;;17.57;95.08;94857.41;5055100;28;20449;-73
2023/11/01 09:31:45;;;;;;;16.33;8.90;;;;;;;17.81;95.72;94856.50;5054328;28;20434;-73
2023/11/01 09:34:12;;;;;;;10.80;8.00;;;;;;;18.10;94.85;94853.16;5055094;28;20456;-74
2023/11/01 09:36:39;;;;;;;12.43;6.67;;;;;;;18.28;89.66;94847.56;5019058;28;20932;-73
2023/11/01 09:39:06;;;;;;;11.43;6.10;;;;;;;18.38;86.48;94850.78;5055197;28;20932;-72
2023/11/01 09:41:40;;;;;;;14.17;6.67;;;;;;;18.47;85.64;94849.69;5053694;28;20874;-73
2023/11/01 09:44:09;;;;;;;6.90;5.03;;;;;;;18.55;83.50;94851.47;5054716;28;20498;-72
2023/11/01 09:46:36;;;;;;;12.73;6.10;;;;;;;18.60;83.31;94842.97;5018752;28;20477;-73
2023/11/01 09:49:05;;;;;;;7.03;6.33;;;;;;;18.48;83.30;94834.59;5054507;28;20952;-72
2023/11/01 09:51:33;;;;;;;9.20;7.33;;;;;;;18.39;83.80;94840.97;5053631;28;20831;-72
2023/11/01 09:54:00;;;;;;;11.63;6.97;;;;;;;18.31;83.90;94828.59;5054581;28;20451;-72
2023/11/01 09:56:32;;;;;;;10.43;7.73;;;;;;;18.25;83.19;94832.81;5035470;28;20448;-73
2023/11/01 09:59:00;;;;;;;8.70;7.83;;;;;;;18.21;82.29;94834.16;5053835;28;20480;-73
2023/11/01 10:01:28;;;;;;;7.90;7.20;;;;;;;18.17;81.16;94834.69;5035611;28;20436;-73
2023/11/01 10:03:55;;;;;;;10.03;7.50;;;;;;;18.15;80.16;94834.03;5054499;28;20450;-73
2023/11/01 10:06:25;;;;;;;9.13;8.23;;;;;;;18.17;81.70;94837.31;5054385;28;20457;-74
2023/11/01 10:08:52;;;;;;;13.00;8.37;;;;;;;18.26;82.13;94826.47;5054396;28;20449;-73
2023/11/01 10:11:20;;;;;;;13.60;9.30;;;;;;;18.28;82.32;94831.63;5019490;28;20449;-73
2023/11/01 10:13:46;;;;;;;10.53;9.40;;;;;;;18.34;82.58;94832.72;5054333;28;21002;-73
2023/11/01 10:16:14;;;;;;;9.43;8.53;;;;;;;18.43;81.88;94831.66;5054416;28;20446;-72
2023/11/01 10:18:42;;;;;;;13.40;9.80;;;;;;;18.34;81.00;94835.38;5054165;28;20832;-73
2023/11/01 10:21:09;;;;;;;9.30;8.27;;;;;;;18.25;81.25;94824.00;5054029;28;20819;-73
2023/11/01 10:23:37;;;;;;;9.33;8.40;;;;;;;18.20;81.41;94832.47;5053448;28;20442;-73
2023/11/01 10:26:04;;;;;;;10.80;9.77;;;;;;;18.26;81.45;94831.78;5053688;28;20489;-73
2023/11/01 10:28:34;;;;;;;9.10;8.40;;;;;;;18.36;80.94;94831.53;5054302;28;20442;-73
2023/11/01 10:31:01;;;;;;;16.03;10.20;;;;;;;18.46;81.55;94839.25;5019060;28;20432;-73
2023/11/01 10:33:30;;;;;;;11.03;9.87;;;;;;;18.63;81.82;94827.50;5053587;28;20568;-73
2023/11/01 10:36:01;;;;;;;9.63;8.83;;;;;;;18.76;79.03;94832.19;5053485;28;20844;-74
2023/11/01 10:38:28;;;;;;;9.67;8.73;;;;;;;18.81;78.14;94840.47;5053387;28;20451;-73
2023/11/01 10:40:59;;;;;;;10.83;8.67;;;;;;;18.82;77.69;94842.13;5053544;28;20435;-73
2023/11/01 10:43:28;;;;;;;10.63;9.23;;;;;;;18.84;77.63;94837.44;5053656;28;20448;-74
2023/11/01 10:45:56;;;;;;;16.30;8.67;;;;;;;18.84;76.35;94840.09;5053961;28;20484;-74
2023/11/01 10:48:24;;;;;;;8.47;7.73;;;;;;;18.63;75.32;94839.97;5034897;28;20429;-74
2023/11/01 10:50:52;;;;;;;9.43;8.43;;;;;;;18.42;76.16;94835.31;5053567;28;20941;-72
2023/11/01 10:53:22;;;;;;;8.07;7.27;;;;;;;18.35;75.28;94829.88;5053265;28;20807;-74
2023/11/01 10:55:50;;;;;;;8.37;7.67;;;;;;;18.21;76.58;94823.53;5053596;28;20458;-73
2023/11/01 10:58:23;;;;;;;9.63;8.00;;;;;;;18.16;76.50;94831.19;5053925;28;20807;-74
2023/11/01 11:00:56;;;;;;;8.00;7.20;;;;;;;18.10;77.25;94818.63;5053569;28;20451;-74
2023/11/01 11:03:32;;;;;;;9.57;8.37;;;;;;;18.13;77.59;94815.63;5053756;28;20450;-75
2023/11/01 11:06:11;;;;;;;9.60;8.57;;;;;;;18.13;77.01;94810.31;5053414;28;20459;-73
2023/11/01 11:08:38;;;;;;;15.60;8.43;;;;;;;18.13;76.76;94814.78;5035604;28;20201;-73
2023/11/01 11:11:17;;;;;;;9.33;8.33;;;;;;;18.13;76.99;94814.78;5053788;28;20444;-73
2023/11/01 11:13:50;;;;;;;10.27;7.23;;;;;;;18.27;75.95;94814.03;5053980;28;20448;-73
2023/11/01 11:16:20;;;;;;;12.33;8.57;;;;;;;18.53;76.87;94817.13;5053862;28;20434;-73
2023/11/01 11:18:55;;;;;;;7.90;7.07;;;;;;;18.64;74.38;94810.56;5034579;28;20491;-72
2023/11/01 11:22:01;;;;;;;7.50;6.73;;;;;;;19.16;81.59;94805.16;5034861;28;20676;-75
2023/11/01 11:24:48;;;;;;;7.73;6.77;;;;;;;19.87;77.77;94804.59;5052901;28;20505;-74
2023/11/01 11:27:49;;;;;;;7.33;6.63;;;;;;;20.00;67.93;94799.41;5053503;28;20533;-74